Time;durP1;ratioP1;P1;durP2;ratioP2;P2;SDS_P1;SDS_P2;PMS_P1;PMS_P2;Temp;Humidity;BMP_temperature;BMP_pressure;BME280_temperature;BME280_humidity;BME280_pressure;Samples;Min_cycle;Max_cycle;Signal;HPM_P1;HPM_P2
2021/03/30 00:00:27;;;;;;;44.28;39.13;;;11.20;99.90;;;;;;4986841;28;20065;-77
2021/03/30 00:02:53;;;;;;;44.72;39.50;;;11.20;99.90;;;;;;4990614;28;20117;-77
2021/03/30 00:05:19;;;;;;;50.60;39.63;;;11.10;99.90;;;;;;4974561;28;20128;-77
2021/03/30 00:07:45;;;;;;;45.78;39.92;;;11.10;99.90;;;;;;4994091;28;20038;-77
2021/03/30 00:10:14;;;;;;;45.85;40.95;;;11.00;99.90;;;;;;4991163;28;20065;-77
2021/03/30 00:12:41;;;;;;;45.78;39.67;;;11.00;99.90;;;;;;4992515;28;20027;-76
2021/03/30 00:15:08;;;;;;;49.45;39.80;;;11.00;99.90;;;;;;4975300;28;20125;-77
2021/03/30 00:17:34;;;;;;;43.28;38.53;;;11.00;99.90;;;;;;4992528;28;20049;-77
2021/03/30 00:20:00;;;;;;;44.22;39.45;;;11.00;99.90;;;;;;4992550;28;20592;-77
2021/03/30 00:22:26;;;;;;;49.25;42.05;;;11.00;99.90;;;;;;4993002;28;20101;-78
2021/03/30 00:24:51;;;;;;;49.20;43.30;;;11.10;99.90;;;;;;4993630;28;20026;-78
2021/03/30 00:27:17;;;;;;;46.03;40.50;;;11.00;99.90;;;;;;4992574;28;20161;-78
2021/03/30 00:29:43;;;;;;;45.25;40.55;;;10.90;99.90;;;;;;4992608;28;20026;-77
2021/03/30 00:32:10;;;;;;;48.83;42.90;;;11.00;99.90;;;;;;4990273;28;20030;-78
2021/03/30 00:34:37;;;;;;;45.53;39.65;;;10.90;99.90;;;;;;4992406;28;20022;-78
2021/03/30 00:37:03;;;;;;;48.40;40.47;;;10.90;99.90;;;;;;4992604;28;20384;-78
2021/03/30 00:39:29;;;;;;;45.28;40.38;;;10.90;99.90;;;;;;4992459;28;20026;-78
2021/03/30 00:41:55;;;;;;;47.75;42.08;;;10.90;99.90;;;;;;4992534;28;20030;-78
2021/03/30 00:44:20;;;;;;;44.20;39.78;;;10.80;99.90;;;;;;4992330;28;20539;-78
2021/03/30 00:46:48;;;;;;;41.85;37.25;;;10.70;99.90;;;;;;4987763;28;20034;-78
2021/03/30 00:49:15;;;;;;;47.63;39.50;;;10.70;99.90;;;;;;4991752;28;20023;-78
2021/03/30 00:51:42;;;;;;;46.25;41.38;;;10.70;99.90;;;;;;4990410;28;20045;-78
2021/03/30 00:54:08;;;;;;;49.03;41.85;;;10.70;99.90;;;;;;4993348;28;20559;-78
2021/03/30 00:56:36;;;;;;;45.30;38.20;;;10.70;99.90;;;;;;4991128;28;20041;-78
2021/03/30 00:59:02;;;;;;;45.90;40.35;;;10.80;99.90;;;;;;4991414;28;20041;-78
2021/03/30 01:01:28;;;;;;;47.80;39.40;;;10.80;99.90;;;;;;4994347;28;20022;-76
2021/03/30 01:03:54;;;;;;;45.85;41.13;;;10.80;99.90;;;;;;4990617;28;20025;-77
2021/03/30 01:06:20;;;;;;;43.00;38.42;;;10.70;99.90;;;;;;4987674;28;20077;-77
2021/03/30 01:08:58;;;;;;;46.38;39.42;;;10.70;99.90;;;;;;4991438;28;20023;-78
2021/03/30 01:11:42;;;;;;;44.00;39.33;;;10.60;99.90;;;;;;4985731;28;20117;-77
2021/03/30 01:14:28;;;;;;;44.72;40.03;;;10.60;99.90;;;;;;4989068;28;20022;-78
2021/03/30 01:17:15;;;;;;;47.28;42.42;;;10.50;99.90;;;;;;4991471;28;20488;-78
2021/03/30 01:19:47;;;;;;;48.28;41.00;;;10.60;99.90;;;;;;4990875;28;20550;-78
2021/03/30 01:22:47;;;;;;;45.55;39.72;;;10.50;99.90;;;;;;4989767;28;20049;-78
2021/03/30 01:25:15;;;;;;;44.63;39.90;;;10.50;99.90;;;;;;4965707;28;20523;-79
2021/03/30 01:28:08;;;;;;;46.55;39.35;;;10.50;99.90;;;;;;4992919;28;20035;-79
2021/03/30 01:30:36;;;;;;;40.08;35.42;;;10.40;99.90;;;;;;4985090;28;20026;-78
2021/03/30 01:33:09;;;;;;;40.30;36.10;;;10.50;99.90;;;;;;4986653;28;20030;-79
2021/03/30 01:35:36;;;;;;;41.65;36.72;;;10.50;99.90;;;;;;4992107;28;20289;-76
2021/03/30 01:38:03;;;;;;;39.55;35.30;;;10.40;99.90;;;;;;4991734;28;20033;-76
2021/03/30 01:40:32;;;;;;;40.75;35.40;;;10.40;99.90;;;;;;4988927;28;20175;-78
2021/03/30 01:43:00;;;;;;;39.10;34.92;;;10.30;99.90;;;;;;4991857;28;20038;-78
2021/03/30 01:45:27;;;;;;;35.88;30.20;;;10.40;99.90;;;;;;4988600;28;20407;-79
2021/03/30 01:47:53;;;;;;;34.67;31.05;;;10.50;99.90;;;;;;4990679;28;20034;-78
2021/03/30 01:50:21;;;;;;;35.28;31.55;;;10.60;99.90;;;;;;4990529;28;20117;-77
2021/03/30 01:52:48;;;;;;;37.15;30.77;;;10.50;99.90;;;;;;4990797;28;20036;-78
2021/03/30 01:55:16;;;;;;;36.58;29.35;;;10.50;99.90;;;;;;4990337;28;20029;-77
2021/03/30 01:57:46;;;;;;;32.17;28.88;;;10.60;99.90;;;;;;4991581;28;20057;-78
2021/03/30 02:00:13;;;;;;;34.08;30.63;;;10.60;99.90;;;;;;4976691;28;20069;-78
2021/03/30 02:02:44;;;;;;;34.20;30.35;;;10.60;99.90;;;;;;4990714;28;20050;-76
2021/03/30 02:05:13;;;;;;;38.55;29.75;;;10.70;99.90;;;;;;4990149;28;20041;-78
2021/03/30 02:07:41;;;;;;;33.55;29.90;;;10.70;99.90;;;;;;4973407;28;20030;-78
2021/03/30 02:10:13;;;;;;;34.20;30.20;;;10.80;99.90;;;;;;4988353;28;20811;-77
2021/03/30 02:12:43;;;;;;;44.00;30.80;;;10.70;99.90;;;;;;4983058;28;20050;-77
2021/03/30 02:15:14;;;;;;;32.47;28.98;;;10.70;99.90;;;;;;4990964;28;20014;-77
2021/03/30 02:17:46;;;;;;;34.55;30.75;;;10.50;99.90;;;;;;4990581;28;20563;-77
2021/03/30 02:20:17;;;;;;;28.38;25.50;;;10.50;99.90;;;;;;4990621;28;20022;-77
2021/03/30 02:22:55;;;;;;;35.78;25.95;;;10.50;99.90;;;;;;4990432;28;20054;-76
2021/03/30 02:25:22;;;;;;;30.13;26.60;;;10.50;99.90;;;;;;4986761;28;20424;-77
2021/03/30 02:27:51;;;;;;;33.13;27.08;;;10.50;99.90;;;;;;4990290;28;20034;-78
2021/03/30 02:30:20;;;;;;;26.85;23.92;;;10.50;99.90;;;;;;4990678;28;20030;-78
2021/03/30 02:32:48;;;;;;;27.67;24.23;;;10.40;99.90;;;;;;4972825;28;20031;-78
2021/03/30 02:35:16;;;;;;;27.48;24.55;;;10.50;99.90;;;;;;4991698;28;20022;-78
2021/03/30 02:37:43;;;;;;;26.98;24.13;;;10.60;99.90;;;;;;4991708;28;20450;-78
2021/03/30 02:40:13;;;;;;;35.17;24.50;;;10.60;99.90;;;;;;4989924;28;20041;-77
2021/03/30 02:42:41;;;;;;;27.30;24.33;;;10.70;99.90;;;;;;4990676;28;20041;-79
2021/03/30 02:45:10;;;;;;;26.95;23.00;;;10.60;99.90;;;;;;4990601;28;20038;-77
2021/03/30 02:47:37;;;;;;;31.55;24.55;;;10.60;99.90;;;;;;4989710;28;20501;-77
2021/03/30 02:50:05;;;;;;;24.13;21.50;;;10.50;99.90;;;;;;4986994;28;20041;-77
2021/03/30 02:52:33;;;;;;;29.55;20.95;;;10.50;99.90;;;;;;4972698;28;20032;-77
2021/03/30 02:55:00;;;;;;;30.10;21.25;;;10.50;99.90;;;;;;4994158;28;20045;-79
2021/03/30 02:57:27;;;;;;;25.75;22.83;;;10.50;99.90;;;;;;4994026;28;20085;-77
2021/03/30 02:59:56;;;;;;;25.17;21.73;;;10.50;99.90;;;;;;4987857;28;20030;-78
2021/03/30 03:02:24;;;;;;;25.77;22.98;;;10.50;99.90;;;;;;4990640;28;20022;-77
2021/03/30 03:04:50;;;;;;;27.33;23.52;;;10.40;99.90;;;;;;4990231;28;20026;-78
2021/03/30 03:07:17;;;;;;;24.23;21.73;;;10.40;99.90;;;;;;4990675;28;20034;-78
2021/03/30 03:09:45;;;;;;;28.98;25.60;;;10.40;99.90;;;;;;4992263;28;20022;-78
2021/03/30 03:12:12;;;;;;;27.33;22.70;;;10.40;99.90;;;;;;4989625;28;20105;-79
2021/03/30 03:14:41;;;;;;;22.60;20.33;;;10.40;99.90;;;;;;4990492;28;20035;-78
2021/03/30 03:17:07;;;;;;;25.90;19.27;;;10.40;99.90;;;;;;4988903;28;20030;-78
2021/03/30 03:19:35;;;;;;;24.42;21.85;;;10.40;99.90;;;;;;4994339;28;20014;-78
2021/03/30 03:22:04;;;;;;;29.75;22.50;;;10.40;99.90;;;;;;4992601;28;20128;-78
2021/03/30 03:24:30;;;;;;;27.35;23.00;;;10.40;99.90;;;;;;4993848;28;20026;-78
2021/03/30 03:26:56;;;;;;;27.25;20.95;;;10.30;99.90;;;;;;4993178;28;20035;-78
2021/03/30 03:29:22;;;;;;;28.55;21.73;;;10.40;99.90;;;;;;4993751;28;20676;-78
2021/03/30 03:31:49;;;;;;;25.67;22.30;;;10.30;99.90;;;;;;4988137;28;20107;-77
2021/03/30 03:34:19;;;;;;;24.33;21.70;;;10.40;99.90;;;;;;4995663;28;20018;-77
2021/03/30 03:36:47;;;;;;;27.15;21.63;;;10.30;99.90;;;;;;4990998;28;20031;-77
2021/03/30 03:39:16;;;;;;;24.08;21.27;;;10.30;99.90;;;;;;4994005;28;20073;-78
2021/03/30 03:41:43;;;;;;;31.95;21.27;;;10.30;99.90;;;;;;4970700;28;20022;-78
2021/03/30 03:44:09;;;;;;;25.70;20.42;;;10.40;99.90;;;;;;4993791;28;20052;-77
2021/03/30 03:46:36;;;;;;;24.23;19.85;;;10.40;99.90;;;;;;4992508;28;20022;-78
2021/03/30 03:49:04;;;;;;;23.92;21.20;;;10.40;99.90;;;;;;4975328;28;20081;-77
2021/03/30 03:51:35;;;;;;;23.90;20.98;;;10.40;99.90;;;;;;4992211;28;20018;-77
2021/03/30 03:54:06;;;;;;;34.00;22.00;;;10.50;99.90;;;;;;4993639;28;20026;-77
2021/03/30 03:56:39;;;;;;;22.65;20.27;;;10.50;99.90;;;;;;4992730;28;20027;-77
2021/03/30 03:59:33;;;;;;;25.67;20.95;;;10.50;99.90;;;;;;4993022;28;20061;-77
2021/03/30 04:02:17;;;;;;;25.38;21.80;;;10.60;99.90;;;;;;4986287;28;20046;-77
2021/03/30 04:05:03;;;;;;;26.20;22.70;;;10.50;99.90;;;;;;4992578;28;20034;-77
2021/03/30 04:07:38;;;;;;;35.17;25.98;;;10.40;99.90;;;;;;4991938;28;20037;-78
2021/03/30 04:10:08;;;;;;;27.30;24.42;;;10.30;99.90;;;;;;4993633;28;20022;-78
2021/03/30 04:12:35;;;;;;;25.83;22.98;;;10.20;99.90;;;;;;4993352;28;20030;-79
2021/03/30 04:15:02;;;;;;;26.92;23.77;;;10.20;99.90;;;;;;4996411;28;20026;-79
2021/03/30 04:17:27;;;;;;;27.33;23.75;;;10.10;99.90;;;;;;4995044;28;20022;-79
2021/03/30 04:19:53;;;;;;;26.63;23.98;;;10.00;99.90;;;;;;4993626;28;20483;-78
2021/03/30 04:22:19;;;;;;;32.15;25.52;;;9.90;99.90;;;;;;4992500;28;20515;-78
2021/03/30 04:24:45;;;;;;;28.33;24.85;;;9.80;99.90;;;;;;4993359;28;20433;-79
2021/03/30 04:27:12;;;;;;;29.38;26.15;;;10.00;99.90;;;;;;4982196;28;20069;-79
2021/03/30 04:29:39;;;;;;;28.92;24.10;;;10.00;99.90;;;;;;4998194;28;20115;-79
2021/03/30 04:32:06;;;;;;;30.90;24.25;;;10.00;99.90;;;;;;5001298;28;20037;-79
2021/03/30 04:34:32;;;;;;;34.65;23.73;;;10.10;99.90;;;;;;5002384;28;20442;-79
2021/03/30 04:36:57;;;;;;;28.48;24.98;;;10.10;99.90;;;;;;5002321;28;20061;-79
2021/03/30 04:39:23;;;;;;;24.60;22.20;;;10.00;99.90;;;;;;4996610;28;20114;-79
2021/03/30 04:41:49;;;;;;;27.25;22.50;;;10.00;99.90;;;;;;5001566;28;20041;-79
2021/03/30 04:44:15;;;;;;;25.52;22.88;;;10.00;99.90;;;;;;5000504;28;20018;-78
2021/03/30 04:46:40;;;;;;;28.50;22.52;;;9.80;99.90;;;;;;4996865;28;20345;-78
2021/03/30 04:49:06;;;;;;;26.85;20.83;;;9.80;99.90;;;;;;4991447;28;20034;-77
2021/03/30 04:51:32;;;;;;;26.40;21.60;;;9.80;99.90;;;;;;4992733;28;20033;-78
2021/03/30 04:53:57;;;;;;;29.23;25.25;;;9.80;99.90;;;;;;4993133;28;20034;-78
2021/03/30 04:56:23;;;;;;;27.60;24.02;;;9.90;99.90;;;;;;4991603;28;20026;-77
2021/03/30 04:58:49;;;;;;;29.83;23.48;;;9.90;99.90;;;;;;4994527;28;20031;-77
2021/03/30 05:01:15;;;;;;;23.40;20.70;;;9.90;99.90;;;;;;4996262;28;20030;-77
2021/03/30 05:03:40;;;;;;;25.52;22.85;;;9.80;99.90;;;;;;4999808;28;20086;-79
2021/03/30 05:06:06;;;;;;;25.17;22.67;;;9.80;99.90;;;;;;4998089;28;20069;-78
2021/03/30 05:08:32;;;;;;;27.77;22.13;;;9.90;99.90;;;;;;4994813;28;20023;-78
2021/03/30 05:10:59;;;;;;;25.02;22.58;;;10.00;99.90;;;;;;4988682;28;20029;-80
2021/03/30 05:13:25;;;;;;;33.05;21.98;;;10.00;99.90;;;;;;4992501;28;20023;-78
2021/03/30 05:15:51;;;;;;;26.50;21.50;;;10.00;99.90;;;;;;4992618;28;20045;-78
2021/03/30 05:18:17;;;;;;;25.27;22.15;;;10.00;99.90;;;;;;4992927;28;20641;-78
2021/03/30 05:20:43;;;;;;;23.92;21.20;;;10.00;99.90;;;;;;4991976;28;20030;-79
2021/03/30 05:23:09;;;;;;;26.13;22.52;;;10.10;99.90;;;;;;4993929;28;20475;-78
2021/03/30 05:25:36;;;;;;;29.77;22.25;;;10.10;99.90;;;;;;4992944;28;20030;-79
2021/03/30 05:28:02;;;;;;;26.90;23.15;;;10.20;99.90;;;;;;4975680;28;20026;-78
2021/03/30 05:30:28;;;;;;;29.15;22.80;;;10.30;99.90;;;;;;4992714;28;20036;-78
2021/03/30 05:32:54;;;;;;;23.83;21.25;;;10.30;99.90;;;;;;4988898;28;20031;-78
2021/03/30 05:35:20;;;;;;;24.80;20.40;;;10.30;99.90;;;;;;4990885;28;20133;-78
2021/03/30 05:37:45;;;;;;;22.83;20.42;;;10.30;99.90;;;;;;4991789;28;20062;-78
2021/03/30 05:40:14;;;;;;;23.00;20.77;;;10.40;99.90;;;;;;4991160;28;20038;-78
2021/03/30 05:42:40;;;;;;;30.63;23.48;;;10.40;99.90;;;;;;4992035;28;20348;-78
2021/03/30 05:45:08;;;;;;;21.85;18.88;;;10.50;99.90;;;;;;4991350;28;20121;-79
2021/03/30 05:47:34;;;;;;;22.08;19.55;;;10.60;99.90;;;;;;4993660;28;20026;-79
2021/03/30 05:50:01;;;;;;;24.08;19.13;;;10.60;99.90;;;;;;4993803;28;20484;-79
2021/03/30 05:53:16;;;;;;;25.90;20.88;;;10.70;99.90;;;;;;4992476;28;20034;-79
2021/03/30 05:55:28;;;;;;;22.15;19.20;;;10.80;99.90;;;;;;4973200;28;20037;-79
2021/03/30 05:57:56;;;;;;;20.63;18.55;;;10.90;99.90;;;;;;4985029;28;20029;-79
2021/03/30 06:00:24;;;;;;;21.75;19.60;;;11.00;99.90;;;;;;4975592;28;20026;-78
2021/03/30 06:02:55;;;;;;;23.38;20.98;;;11.00;99.90;;;;;;4991637;28;20026;-77
2021/03/30 06:05:22;;;;;;;23.10;20.70;;;11.10;99.90;;;;;;4992027;28;20018;-77
2021/03/30 06:07:51;;;;;;;24.63;21.58;;;11.20;99.90;;;;;;4991980;28;20030;-78
2021/03/30 06:10:18;;;;;;;25.63;21.88;;;11.30;99.90;;;;;;4994651;28;20109;-80
2021/03/30 06:12:45;;;;;;;28.58;22.17;;;11.40;99.90;;;;;;4993193;28;20117;-78
2021/03/30 06:15:12;;;;;;;29.13;24.65;;;11.70;99.90;;;;;;5005969;28;20676;-79
2021/03/30 06:17:43;;;;;;;27.50;23.02;;;12.00;99.90;;;;;;4994034;28;20034;-79
2021/03/30 06:20:11;;;;;;;26.38;22.25;;;12.20;99.90;;;;;;4990759;28;20022;-79
2021/03/30 06:22:48;;;;;;;35.50;22.85;;;12.30;99.90;;;;;;4991443;28;20133;-78
2021/03/30 06:25:41;;;;;;;28.15;22.05;;;12.50;99.90;;;;;;4981962;28;20031;-80
2021/03/30 06:28:10;;;;;;;31.98;22.80;;;12.70;99.90;;;;;;4992131;28;20038;-78
2021/03/30 06:30:36;;;;;;;38.10;25.23;;;12.90;99.90;;;;;;4988623;28;20027;-79
2021/03/30 06:33:03;;;;;;;26.77;23.98;;;12.90;99.90;;;;;;4999215;28;20032;-78
2021/03/30 06:35:30;;;;;;;30.17;23.50;;;13.00;99.90;;;;;;4992521;28;20026;-79
2021/03/30 06:37:56;;;;;;;26.40;22.77;;;13.20;99.90;;;;;;4991818;28;20045;-79
2021/03/30 06:40:33;;;;;;;35.20;25.30;;;13.30;99.90;;;;;;4993119;28;20503;-79
2021/03/30 06:44:24;;;;;;;36.17;25.98;;;13.40;99.90;;;;;;4994069;28;20122;-79
2021/03/30 06:46:06;;;;;;;34.42;25.48;;;13.50;99.90;;;;;;4991207;28;20121;-79
2021/03/30 06:48:32;;;;;;;28.52;25.45;;;13.50;99.90;;;;;;4992169;28;20018;-78
2021/03/30 06:51:15;;;;;;;68.38;36.20;;;13.50;99.90;;;;;;4994743;28;20026;-78
2021/03/30 06:53:40;;;;;;;;;;;13.50;99.90;;;;;;4999152;28;20030;-78
2021/03/30 06:56:06;;;;;;;65.88;35.30;;;13.50;99.90;;;;;;4994399;28;19918;-81
2021/03/30 06:58:56;;;;;;;66.13;33.70;;;13.50;99.90;;;;;;4997023;28;20037;-80
2021/03/30 07:01:24;;;;;;;45.55;28.75;;;13.50;99.90;;;;;;4975117;28;20054;-80
2021/03/30 07:03:50;;;;;;;45.33;33.15;;;13.60;99.90;;;;;;4991654;28;20095;-78
2021/03/30 07:06:17;;;;;;;50.42;37.47;;;13.50;99.90;;;;;;4988330;28;20030;-80
2021/03/30 07:08:44;;;;;;;48.92;36.83;;;13.40;99.90;;;;;;4992851;28;20031;-79
2021/03/30 07:11:11;;;;;;;45.25;32.33;;;13.40;99.90;;;;;;4989701;28;20470;-71
2021/03/30 07:13:37;;;;;;;42.65;33.42;;;13.40;99.90;;;;;;4971760;28;20045;-69
2021/03/30 07:16:19;;;;;;;43.47;31.67;;;13.50;99.90;;;;;;4990667;28;20018;-69
2021/03/30 07:18:47;;;;;;;36.65;32.67;;;13.50;99.90;;;;;;4988575;28;20475;-70
2021/03/30 07:21:22;;;;;;;41.17;33.30;;;13.60;99.90;;;;;;4988588;28;20107;-70
2021/03/30 07:23:56;;;;;;;38.80;33.72;;;13.60;99.90;;;;;;4989053;28;20073;-70
2021/03/30 07:26:29;;;;;;;42.00;33.78;;;13.60;99.90;;;;;;4990568;28;20053;-69
2021/03/30 07:29:36;;;;;;;46.53;37.65;;;13.60;99.90;;;;;;4981489;28;20401;-70
2021/03/30 07:32:16;;;;;;;44.65;39.63;;;13.50;99.90;;;;;;4967080;28;20416;-70
2021/03/30 07:35:01;;;;;;;45.38;40.30;;;13.60;99.90;;;;;;4989577;28;20472;-69
2021/03/30 07:37:47;;;;;;;46.63;41.67;;;13.50;99.90;;;;;;4985613;28;20014;-71
2021/03/30 07:40:16;;;;;;;51.90;43.60;;;13.40;99.90;;;;;;4988256;28;20092;-70
2021/03/30 07:42:44;;;;;;;51.95;43.70;;;13.30;99.90;;;;;;4991348;28;20453;-71
2021/03/30 07:45:13;;;;;;;48.30;43.20;;;13.30;99.90;;;;;;4990457;28;20160;-70
2021/03/30 07:47:40;;;;;;;51.47;41.67;;;13.30;99.90;;;;;;4988924;28;20076;-68
2021/03/30 07:50:10;;;;;;;49.90;44.33;;;13.30;99.90;;;;;;4988887;28;21385;-70
2021/03/30 07:52:54;;;;;;;49.38;42.50;;;13.30;99.90;;;;;;4989765;28;20112;-70
2021/03/30 07:55:28;;;;;;;54.33;45.78;;;13.30;99.90;;;;;;4987796;28;20085;-69
2021/03/30 07:58:07;;;;;;;52.13;42.53;;;13.30;99.90;;;;;;4990218;28;20517;-67
2021/03/30 08:00:32;;;;;;;47.83;41.50;;;13.40;99.90;;;;;;4971144;28;20131;-69
2021/03/30 08:03:20;;;;;;;52.22;43.13;;;13.40;99.90;;;;;;4992163;28;20493;-69
2021/03/30 08:06:16;;;;;;;51.35;44.50;;;13.40;99.90;;;;;;4989962;28;20033;-68
2021/03/30 08:08:51;;;;;;;48.20;42.33;;;13.40;99.90;;;;;;4993695;28;20027;-71
2021/03/30 08:11:41;;;;;;;46.95;41.42;;;13.50;99.90;;;;;;4991511;28;20018;-65
2021/03/30 08:14:19;;;;;;;44.65;37.95;;;13.70;99.90;;;;;;4993280;28;20041;-66
2021/03/30 08:16:47;;;;;;;42.20;38.08;;;14.10;99.90;;;;;;4973844;28;20497;-63
2021/03/30 08:19:15;;;;;;;43.70;39.10;;;14.40;99.90;;;;;;4992049;28;20041;-63
2021/03/30 08:21:55;;;;;;;45.17;38.00;;;14.60;99.90;;;;;;4990541;28;20535;-69
2021/03/30 08:24:23;;;;;;;51.30;37.45;;;14.70;99.90;;;;;;4992070;28;20034;-70
2021/03/30 08:26:49;;;;;;;44.80;39.58;;;14.80;99.90;;;;;;4992322;28;20033;-70
2021/03/30 08:29:32;;;;;;;47.53;39.95;;;14.80;99.90;;;;;;4992757;28;20109;-70
2021/03/30 08:31:59;;;;;;;43.25;38.65;;;14.70;99.90;;;;;;4990397;28;20034;-72
2021/03/30 08:34:27;;;;;;;45.17;40.08;;;14.70;99.90;;;;;;4992048;28;20101;-70
2021/03/30 08:36:57;;;;;;;48.42;40.33;;;14.70;99.90;;;;;;4992272;28;20031;-71
2021/03/30 08:39:23;;;;;;;46.35;41.40;;;14.70;99.90;;;;;;4992395;28;20033;-69
2021/03/30 08:42:04;;;;;;;47.85;40.92;;;14.70;99.90;;;;;;4991996;28;20034;-71
2021/03/30 08:44:31;;;;;;;49.90;42.15;;;14.70;99.90;;;;;;4986583;28;20611;-70
2021/03/30 08:46:58;;;;;;;45.53;40.90;;;14.60;99.90;;;;;;4992335;28;20037;-71
2021/03/30 08:49:24;;;;;;;48.75;43.50;;;14.70;99.90;;;;;;4991624;28;20507;-70
2021/03/30 08:51:57;;;;;;;49.15;43.85;;;14.70;99.90;;;;;;4998034;28;20030;-71
2021/03/30 08:54:32;;;;;;;50.67;40.13;;;14.60;99.90;;;;;;4991124;28;20026;-68
2021/03/30 08:57:04;;;;;;;52.38;41.85;;;14.60;99.90;;;;;;4992756;28;20484;-70
2021/03/30 08:59:30;;;;;;;47.47;42.33;;;14.60;99.90;;;;;;4991058;28;20026;-69
2021/03/30 09:02:03;;;;;;;43.88;38.05;;;14.50;99.90;;;;;;4991101;28;20026;-70
2021/03/30 09:04:31;;;;;;;42.50;38.00;;;14.50;99.90;;;;;;4990685;28;20022;-71
2021/03/30 09:06:58;;;;;;;38.45;34.47;;;14.60;99.90;;;;;;4991814;28;20030;-71
2021/03/30 09:09:28;;;;;;;38.60;32.13;;;14.80;99.90;;;;;;4991547;28;20457;-71
2021/03/30 09:11:54;;;;;;;42.13;32.08;;;14.90;99.90;;;;;;4990019;28;20127;-73
2021/03/30 09:14:22;;;;;;;33.03;29.80;;;15.10;99.90;;;;;;4981636;28;20105;-71
2021/03/30 09:16:51;;;;;;;31.65;28.40;;;15.20;99.90;;;;;;4983709;28;20023;-69
2021/03/30 09:19:34;;;;;;;32.50;27.38;;;15.20;99.90;;;;;;4989338;28;20021;-71
2021/03/30 09:22:03;;;;;;;32.42;28.85;;;15.40;99.90;;;;;;4991274;28;20034;-73
2021/03/30 09:26:59;;;;;;;33.10;27.73;;;15.50;99.90;;;;;;4992746;28;20034;-70
2021/03/30 09:29:25;;;;;;;35.85;26.50;;;15.60;99.90;;;;;;4991483;28;20186;-70
2021/03/30 09:31:51;;;;;;;34.72;28.40;;;15.60;99.90;;;;;;4988930;28;20106;-69
2021/03/30 09:34:17;;;;;;;42.70;33.30;;;15.70;99.90;;;;;;4990630;28;20026;-71
2021/03/30 09:36:48;;;;;;;52.05;37.88;;;15.80;99.90;;;;;;4989266;28;20033;-72
2021/03/30 09:39:21;;;;;;;41.53;37.22;;;15.90;99.90;;;;;;4991180;28;20393;-69
2021/03/30 09:41:49;;;;;;;42.13;37.88;;;15.90;99.90;;;;;;4989913;28;20093;-70
2021/03/30 09:44:20;;;;;;;43.17;38.10;;;16.00;99.90;;;;;;4991906;28;20106;-71
2021/03/30 09:46:55;;;;;;;39.65;35.58;;;16.00;99.90;;;;;;4991523;28;20054;-71
2021/03/30 09:49:23;;;;;;;40.15;35.28;;;15.90;99.90;;;;;;4991498;28;20030;-73
2021/03/30 09:51:50;;;;;;;53.63;35.65;;;15.70;99.90;;;;;;4990015;28;20033;-71
2021/03/30 09:54:20;;;;;;;42.45;36.00;;;15.70;99.90;;;;;;4990702;28;20468;-72
2021/03/30 09:56:46;;;;;;;38.92;34.85;;;15.50;99.90;;;;;;4990713;28;20030;-73
2021/03/30 09:59:18;;;;;;;36.10;32.40;;;15.50;99.90;;;;;;4991542;28;20030;-70
2021/03/30 10:01:44;;;;;;;34.53;29.88;;;15.50;99.90;;;;;;4972150;28;20109;-72
2021/03/30 10:04:11;;;;;;;45.25;33.00;;;15.50;99.90;;;;;;4990661;28;20026;-71
2021/03/30 10:06:37;;;;;;;39.08;34.42;;;15.50;99.90;;;;;;4990805;28;20031;-70
2021/03/30 10:09:07;;;;;;;35.80;32.25;;;15.60;99.90;;;;;;4991767;28;20398;-72
2021/03/30 10:11:33;;;;;;;35.78;31.52;;;15.70;99.90;;;;;;4988750;28;20389;-70
2021/03/30 10:14:19;;;;;;;37.50;32.58;;;15.80;99.90;;;;;;4991344;28;20379;-72
2021/03/30 10:16:45;;;;;;;38.85;33.67;;;16.00;99.90;;;;;;4990890;28;20014;-70
2021/03/30 10:19:15;;;;;;;39.72;32.13;;;16.10;99.90;;;;;;4989937;28;21968;-72
2021/03/30 10:21:43;;;;;;;40.63;32.00;;;16.20;99.90;;;;;;4990981;28;20030;-72
2021/03/30 10:24:11;;;;;;;40.70;32.25;;;16.30;99.90;;;;;;4989367;28;20042;-70
2021/03/30 10:26:37;;;;;;;34.13;30.52;;;16.40;99.90;;;;;;4991408;28;20026;-70
2021/03/30 10:29:14;;;;;;;35.40;31.48;;;16.50;99.90;;;;;;4990932;28;20096;-69
2021/03/30 10:34:30;;;;;;;33.38;29.63;;;16.60;99.90;;;;;;4989787;28;20081;-72
2021/03/30 10:37:00;;;;;;;45.30;32.13;;;16.70;99.90;;;;;;4989149;28;20516;-73
2021/03/30 10:39:30;;;;;;;38.58;33.30;;;16.80;99.90;;;;;;4983540;28;20022;-73
2021/03/30 10:42:09;;;;;;;33.80;29.73;;;16.90;99.90;;;;;;4990676;28;20025;-71
2021/03/30 10:44:36;;;;;;;36.53;32.78;;;16.80;99.90;;;;;;4974466;28;20082;-73
2021/03/30 10:47:20;;;;;;;33.38;29.85;;;16.70;99.90;;;;;;4990979;28;20022;-73
2021/03/30 10:49:49;;;;;;;41.22;32.50;;;16.80;99.90;;;;;;4989537;28;20535;-70
2021/03/30 10:52:27;;;;;;;43.10;34.17;;;17.00;99.90;;;;;;4988843;28;20038;-71
2021/03/30 10:54:56;;;;;;;53.70;47.90;;;17.10;99.90;;;;;;4989713;28;20060;-70
2021/03/30 10:57:23;;;;;;;46.72;41.80;;;17.20;99.90;;;;;;4991187;28;20018;-73
2021/03/30 10:59:49;;;;;;;52.22;44.35;;;17.20;99.90;;;;;;4989864;28;20022;-71
2021/03/30 11:02:16;;;;;;;60.28;46.28;;;17.10;99.90;;;;;;4989617;28;20160;-71
2021/03/30 11:04:43;;;;;;;55.67;47.17;;;17.10;99.90;;;;;;4990632;28;20023;-72
2021/03/30 11:07:10;;;;;;;51.97;43.15;;;17.00;99.90;;;;;;4989182;28;20037;-72
2021/03/30 11:09:36;;;;;;;54.13;48.05;;;17.00;99.90;;;;;;4989465;28;20023;-73
2021/03/30 11:12:02;;;;;;;52.20;46.60;;;17.10;99.90;;;;;;4987990;28;20428;-71
2021/03/30 11:14:28;;;;;;;54.05;44.63;;;17.00;99.90;;;;;;4990900;28;20030;-71
2021/03/30 11:16:54;;;;;;;71.50;48.20;;;17.10;99.90;;;;;;4977291;28;20034;-73
2021/03/30 11:19:20;;;;;;;47.28;41.97;;;17.10;99.90;;;;;;4990676;28;20032;-69
2021/03/30 11:21:47;;;;;;;50.22;43.13;;;17.10;99.90;;;;;;4988898;28;20030;-70
2021/03/30 11:24:22;;;;;;;44.55;39.47;;;17.00;99.90;;;;;;4990416;28;20030;-72
2021/03/30 11:26:50;;;;;;;50.00;38.45;;;17.00;99.90;;;;;;4990850;28;20101;-72
2021/03/30 11:37:05;;;;;;;38.72;31.17;;;16.90;99.90;;;;;;4990438;28;20053;-69
2021/03/30 11:39:31;;;;;;;32.88;28.45;;;16.90;99.90;;;;;;4989124;28;20018;-72
2021/03/30 11:41:56;;;;;;;44.72;27.75;;;16.90;99.90;;;;;;4994054;28;20034;-72
2021/03/30 11:44:22;;;;;;;29.83;26.70;;;17.00;99.90;;;;;;4994769;28;20018;-70
2021/03/30 11:46:48;;;;;;;30.85;25.67;;;17.10;99.90;;;;;;4991140;28;20022;-69
2021/03/30 11:49:14;;;;;;;40.50;34.97;;;17.20;99.90;;;;;;4992883;28;20480;-73
2021/03/30 11:51:39;;;;;;;40.72;31.15;;;17.30;99.90;;;;;;4992773;28;20038;-70
2021/03/30 11:54:05;;;;;;;51.03;36.15;;;17.40;99.90;;;;;;4975669;28;20030;-71
2021/03/30 11:56:31;;;;;;;47.40;34.17;;;17.60;99.90;;;;;;4992883;28;20168;-70
2021/03/30 11:58:57;;;;;;;43.10;35.72;;;17.70;99.90;;;;;;4993932;28;20085;-69
2021/03/30 12:01:22;;;;;;;38.75;34.88;;;17.70;99.90;;;;;;4992657;28;20080;-70
2021/03/30 12:03:48;;;;;;;35.03;31.17;;;17.60;99.90;;;;;;4994818;28;20102;-68
2021/03/30 12:06:14;;;;;;;42.35;30.42;;;17.60;99.90;;;;;;4991126;28;20420;-67
2021/03/30 12:08:40;;;;;;;32.72;28.10;;;17.60;99.90;;;;;;4992914;28;20440;-68
2021/03/30 12:11:05;;;;;;;34.15;25.65;;;17.50;99.90;;;;;;4990997;28;20018;-70
2021/03/30 12:13:31;;;;;;;26.33;23.40;;;17.50;99.90;;;;;;4993566;28;20057;-69
2021/03/30 12:15:57;;;;;;;34.50;25.15;;;17.50;99.90;;;;;;4993978;28;20030;-71
2021/03/30 12:18:23;;;;;;;26.30;23.58;;;17.40;99.90;;;;;;4993630;28;20081;-70
2021/03/30 12:20:49;;;;;;;31.08;23.75;;;17.40;99.90;;;;;;4992022;28;20038;-70
2021/03/30 12:23:14;;;;;;;42.92;25.67;;;17.50;99.90;;;;;;4993684;28;20022;-70
2021/03/30 12:25:40;;;;;;;35.97;22.90;;;17.60;99.90;;;;;;4990096;28;20042;-72
2021/03/30 12:28:06;;;;;;;36.45;25.05;;;17.70;99.90;;;;;;4990390;28;20489;-72
2021/03/30 12:30:32;;;;;;;38.17;31.15;;;17.90;99.90;;;;;;4991894;28;20872;-71
2021/03/30 12:32:59;;;;;;;35.03;31.13;;;18.00;99.90;;;;;;4993338;28;20054;-72
2021/03/30 12:35:25;;;;;;;36.63;32.70;;;17.90;99.90;;;;;;4990808;28;20105;-70
2021/03/30 12:37:51;;;;;;;46.35;41.38;;;18.10;99.90;;;;;;4991996;28;20114;-69
2021/03/30 12:40:17;;;;;;;42.47;37.90;;;18.30;99.90;;;;;;4991878;28;20030;-69
2021/03/30 12:42:42;;;;;;;44.85;39.70;;;18.30;99.90;;;;;;4990703;28;20030;-72
2021/03/30 12:45:09;;;;;;;41.75;37.22;;;18.30;99.90;;;;;;4991720;28;20375;-71
2021/03/30 12:47:35;;;;;;;44.85;37.90;;;18.40;99.90;;;;;;4990674;28;20052;-71
2021/03/30 12:50:01;;;;;;;48.97;37.38;;;18.40;99.90;;;;;;4992175;28;20114;-72
2021/03/30 12:52:26;;;;;;;37.83;33.88;;;18.40;99.90;;;;;;4992108;28;20030;-71